Time;durP1;ratioP1;P1;durP2;ratioP2;P2;SDS_P1;SDS_P2;PMS_P1;PMS_P2;Temp;Humidity;BMP_temperature;BMP_pressure;BME280_temperature;BME280_humidity;BME280_pressure;Samples;Min_cycle;Max_cycle;Signal;HPM_P1;HPM_P2
2023/10/12 00:01:57;;;;;;;6.20;5.60;;;;;;;14.13;76.38;95722.72;5093651;28;20440;-80
2023/10/12 00:04:25;;;;;;;7.17;5.03;;;;;;;14.13;75.81;95718.25;5092887;28;20782;-78
2023/10/12 00:06:52;;;;;;;5.70;4.93;;;;;;;14.13;76.07;95728.81;5092887;28;20447;-79
2023/10/12 00:09:20;;;;;;;7.53;5.17;;;;;;;14.13;76.17;95722.72;5093180;28;20472;-79
2023/10/12 00:11:57;;;;;;;5.37;4.80;;;;;;;14.09;76.91;95724.78;5092828;28;20457;-80
2023/10/12 00:14:26;;;;;;;7.30;4.73;;;;;;;14.04;76.29;95719.06;5092668;28;20455;-79
2023/10/12 00:16:56;;;;;;;8.13;5.33;;;;;;;13.99;76.29;95720.44;5092735;28;20436;-80
2023/10/12 00:19:25;;;;;;;10.97;6.10;;;;;;;13.69;77.25;95716.78;5092965;28;20482;-80
2023/10/12 00:21:56;;;;;;;8.40;5.47;;;;;;;13.71;77.36;95711.38;5057520;28;20451;-79
2023/10/12 00:24:23;;;;;;;8.87;5.10;;;;;;;13.73;78.10;95709.44;5092680;28;20774;-80
2023/10/12 00:26:50;;;;;;;6.60;5.10;;;;;;;13.70;77.62;95704.41;5057318;28;20435;-79
2023/10/12 00:29:18;;;;;;;9.43;6.00;;;;;;;13.73;78.15;95699.72;5092602;28;20443;-80
2023/10/12 00:31:48;;;;;;;9.60;5.80;;;;;;;13.63;77.00;95704.09;5092635;28;20537;-81
2023/10/12 00:34:22;;;;;;;5.10;4.60;;;;;;;13.53;76.91;95696.09;5092823;28;20444;-80
2023/10/12 00:36:52;;;;;;;6.40;5.00;;;;;;;13.54;77.54;95699.59;5042387;28;20472;-80
2023/10/12 00:39:21;;;;;;;7.30;5.17;;;;;;;13.53;77.13;95687.38;5092577;28;20922;-80
2023/10/12 00:41:51;;;;;;;7.33;5.70;;;;;;;13.47;77.56;95693.16;5092380;28;21144;-80
2023/10/12 00:44:19;;;;;;;6.73;5.27;;;;;;;13.37;78.38;95684.34;5095870;28;20445;-78
2023/10/12 00:47:10;;;;;;;17.23;5.37;;;;;;;13.31;78.68;95688.34;5060048;28;20439;-80
2023/10/12 00:49:42;;;;;;;6.27;4.67;;;;;;;13.29;78.80;95683.16;5096085;28;20450;-80
2023/10/12 00:52:14;;;;;;;12.23;4.97;;;;;;;13.26;78.95;95683.41;5061337;28;20445;-80
2023/10/12 00:54:49;;;;;;;8.00;6.23;;;;;;;13.29;78.13;95688.44;5095650;28;20573;-79
2023/10/12 00:57:16;;;;;;;10.83;5.33;;;;;;;13.20;78.01;95680.47;5095751;28;20446;-79
2023/10/12 00:59:46;;;;;;;7.67;6.57;;;;;;;13.27;77.54;95681.63;5095661;28;20493;-79
2023/10/12 01:02:15;;;;;;;9.63;5.40;;;;;;;13.13;78.06;95681.91;5095609;28;20441;-80
2023/10/12 01:04:48;;;;;;;16.60;8.30;;;;;;;13.07;78.23;95682.41;5095757;28;20446;-79
2023/10/12 01:07:19;;;;;;;6.80;5.10;;;;;;;13.11;78.32;95682.03;5095553;28;20442;-80
2023/10/12 01:09:48;;;;;;;11.73;5.97;;;;;;;12.91;78.58;95680.19;5095556;28;20453;-80
2023/10/12 01:12:15;;;;;;;16.07;7.27;;;;;;;12.85;78.90;95676.25;5095261;28;20509;-79
2023/10/12 01:14:47;;;;;;;9.33;5.80;;;;;;;12.82;79.23;95675.66;5095554;28;20473;-80
2023/10/12 01:17:17;;;;;;;11.03;7.33;;;;;;;12.46;80.00;95674.22;5096452;28;20541;-79
2023/10/12 01:19:46;;;;;;;7.10;6.07;;;;;;;12.27;82.18;95675.66;5095318;28;20484;-79
2023/10/12 01:22:14;;;;;;;10.80;6.10;;;;;;;12.27;81.88;95678.28;5095214;28;20529;-80
2023/10/12 01:25:00;;;;;;;6.43;5.80;;;;;;;12.32;82.24;95673.50;5095027;28;20445;-80
2023/10/12 01:27:27;;;;;;;8.30;6.40;;;;;;;12.39;81.23;95682.56;5095097;28;20452;-79
2023/10/12 01:29:58;;;;;;;7.50;6.23;;;;;;;12.48;81.67;95675.75;5095175;28;20867;-79
2023/10/12 01:32:28;;;;;;;15.73;6.67;;;;;;;12.56;80.92;95665.44;5095035;28;20767;-79
2023/10/12 01:34:57;;;;;;;16.10;6.00;;;;;;;12.68;80.76;95666.22;5095394;28;20469;-80
2023/10/12 01:37:26;;;;;;;10.77;6.63;;;;;;;12.64;80.21;95663.03;5095077;28;20784;-80
2023/10/12 01:40:10;;;;;;;6.77;5.47;;;;;;;12.62;79.94;95659.66;5059221;28;20476;-81
2023/10/12 01:42:42;;;;;;;10.33;6.30;;;;;;;12.62;80.06;95667.56;5095122;28;20477;-80
2023/10/12 01:45:18;;;;;;;10.43;5.77;;;;;;;12.62;79.54;95658.84;5094969;28;20453;-80
2023/10/12 01:47:50;;;;;;;18.93;5.67;;;;;;;12.63;79.75;95661.34;5095133;28;20769;-80
2023/10/12 01:50:17;;;;;;;6.03;4.83;;;;;;;12.64;79.76;95660.38;5059018;28;20446;-80
2023/10/12 01:52:47;;;;;;;6.20;4.83;;;;;;;12.68;79.22;95659.16;5094756;28;20434;-80
2023/10/12 01:55:19;;;;;;;5.47;4.97;;;;;;;12.76;79.32;95671.75;5094676;28;20584;-80
2023/10/12 01:57:52;;;;;;;7.07;5.27;;;;;;;12.78;79.23;95672.44;5094617;28;20454;-79
2023/10/12 02:00:25;;;;;;;8.30;4.80;;;;;;;12.83;79.42;95672.91;5061007;28;20489;-79
2023/10/12 02:03:01;;;;;;;13.47;5.20;;;;;;;12.85;79.02;95676.25;5094592;28;20443;-80
2023/10/12 02:05:30;;;;;;;7.70;6.17;;;;;;;12.81;78.49;95674.84;5094556;28;20446;-79
2023/10/12 02:08:05;;;;;;;12.07;6.27;;;;;;;12.82;78.91;95676.50;5094494;28;20812;-79
2023/10/12 02:10:41;;;;;;;7.00;5.20;;;;;;;12.73;78.33;95679.91;5096237;28;20458;-81
2023/10/12 02:13:10;;;;;;;6.57;5.90;;;;;;;12.71;78.92;95673.88;5097097;28;20476;-80
2023/10/12 02:15:38;;;;;;;6.50;5.40;;;;;;;12.67;78.57;95675.09;5061616;28;20441;-79
2023/10/12 02:18:10;;;;;;;8.73;5.70;;;;;;;12.66;79.37;95676.06;5094131;28;20812;-79
2023/10/12 02:20:42;;;;;;;7.10;5.43;;;;;;;12.67;79.15;95675.94;5094084;28;20484;-80
2023/10/12 02:23:13;;;;;;;8.80;5.77;;;;;;;12.71;79.44;95682.63;5093980;28;20448;-80
2023/10/12 02:25:50;;;;;;;13.40;5.60;;;;;;;12.70;78.86;95690.66;5094199;28;20442;-80
2023/10/12 02:28:22;;;;;;;10.47;5.40;;;;;;;12.68;79.49;95688.13;5061574;28;20559;-79
2023/10/12 02:30:53;;;;;;;6.23;4.80;;;;;;;12.61;78.83;95683.50;5060163;28;20936;-80
2023/10/12 02:33:23;;;;;;;13.47;5.63;;;;;;;12.51;78.67;95674.66;5093862;28;20859;-80
2023/10/12 02:35:51;;;;;;;6.00;5.40;;;;;;;12.43;79.20;95677.88;5093860;28;20530;-80
2023/10/12 02:38:27;;;;;;;6.30;5.70;;;;;;;12.40;79.59;95676.34;5093403;28;20452;-79
2023/10/12 02:40:58;;;;;;;7.50;6.37;;;;;;;12.41;79.71;95680.66;5093790;28;20535;-80
2023/10/12 02:43:27;;;;;;;7.93;5.60;;;;;;;12.41;79.82;95677.19;5093786;28;20445;-80
2023/10/12 02:45:54;;;;;;;6.53;5.20;;;;;;;12.43;79.30;95671.78;5093603;28;20446;-80
2023/10/12 02:48:24;;;;;;;9.10;5.60;;;;;;;12.47;79.00;95681.16;5093402;28;20460;-80
2023/10/12 02:51:01;;;;;;;9.93;6.20;;;;;;;12.48;79.26;95688.06;5093533;28;20453;-79
2023/10/12 02:53:30;;;;;;;8.23;6.63;;;;;;;12.51;79.48;95683.41;5093615;28;20484;-80
2023/10/12 02:56:01;;;;;;;8.93;6.57;;;;;;;12.58;79.07;95687.22;5093433;28;20890;-80
2023/10/12 02:58:28;;;;;;;6.87;6.17;;;;;;;12.54;78.17;95677.06;5093336;28;20437;-80
2023/10/12 03:00:58;;;;;;;14.03;5.53;;;;;;;12.62;78.26;95679.91;5093591;28;20516;-80
2023/10/12 03:03:36;;;;;;;5.83;5.23;;;;;;;12.64;78.51;95683.25;5093689;28;20445;-79
2023/10/12 03:06:07;;;;;;;5.20;4.70;;;;;;;12.65;78.58;95679.66;5093162;28;20496;-78
2023/10/12 03:08:59;;;;;;;7.43;5.77;;;;;;;12.64;78.08;95680.63;5058853;28;20453;-78
2023/10/12 03:11:25;;;;;;;7.43;4.63;;;;;;;12.62;78.90;95680.75;5093121;28;20758;-79
2023/10/12 03:14:00;;;;;;;5.17;4.77;;;;;;;12.64;79.03;95677.97;5093461;28;20455;-80
2023/10/12 03:16:33;;;;;;;7.43;5.87;;;;;;;12.65;79.07;95671.75;5093083;28;20531;-80
2023/10/12 03:19:17;;;;;;;6.50;4.93;;;;;;;12.61;77.83;95668.53;5093288;28;20452;-81
2023/10/12 03:21:46;;;;;;;7.13;5.83;;;;;;;12.58;78.13;95660.88;5093441;28;20443;-81
2023/10/12 03:24:15;;;;;;;11.00;5.60;;;;;;;12.60;78.62;95660.75;5093075;28;20854;-79
2023/10/12 03:26:48;;;;;;;8.97;5.47;;;;;;;12.59;78.56;95664.34;5092957;28;20433;-80
2023/10/12 03:29:19;;;;;;;4.80;4.37;;;;;;;12.52;78.24;95663.19;5091801;28;20838;-80
2023/10/12 03:31:55;;;;;;;9.33;4.83;;;;;;;12.46;78.52;95666.31;5075586;28;20840;-81
2023/10/12 03:34:35;;;;;;;8.30;5.00;;;;;;;12.40;78.78;95660.53;5084797;28;20858;-78
2023/10/12 03:37:03;;;;;;;5.53;4.93;;;;;;;12.36;79.03;95664.38;5092740;28;20436;-78
2023/10/12 03:39:42;;;;;;;10.20;5.23;;;;;;;12.29;79.76;95663.22;5093017;28;20442;-77
2023/10/12 03:42:12;;;;;;;6.80;4.93;;;;;;;12.28;79.21;95666.81;5075807;28;20520;-78
2023/10/12 03:44:49;;;;;;;5.63;4.77;;;;;;;12.26;79.01;95663.44;5092897;28;20920;-79
2023/10/12 03:47:23;;;;;;;11.63;5.20;;;;;;;12.26;79.50;95668.72;5093058;28;20906;-79
2023/10/12 03:49:59;;;;;;;5.57;4.97;;;;;;;12.29;79.17;95668.47;5092847;28;20521;-78
2023/10/12 03:52:34;;;;;;;6.80;5.73;;;;;;;12.29;79.50;95670.25;5092696;28;20447;-79
2023/10/12 03:57:51;;;;;;;9.03;5.50;;;;;;;12.25;79.60;95672.31;5092607;28;20449;-79
2023/10/12 04:00:31;;;;;;;6.60;5.93;;;;;;;12.25;79.47;95669.69;5092519;28;20987;-78
2023/10/12 04:03:04;;;;;;;7.47;4.90;;;;;;;12.26;79.56;95676.63;5092759;28;20502;-78
2023/10/12 04:05:46;;;;;;;5.63;4.53;;;;;;;12.21;78.65;95673.50;5073584;28;20440;-79
2023/10/12 04:08:38;;;;;;;8.80;4.60;;;;;;;12.19;79.15;95675.44;5092511;28;20468;-78
2023/10/12 04:11:47;;;;;;;12.40;5.83;;;;;;;12.14;79.29;95680.19;5092836;28;20827;-78
2023/10/12 04:17:07;;;;;;;10.20;5.10;;;;;;;12.03;80.23;95682.84;5059438;28;20428;-79
2023/10/12 04:19:34;;;;;;;10.73;5.90;;;;;;;11.95;80.52;95678.19;5096109;28;20449;-78
2023/10/12 04:22:16;;;;;;;12.07;5.50;;;;;;;11.91;80.64;95678.53;5095875;28;21009;-78
2023/10/12 04:24:43;;;;;;;12.50;5.23;;;;;;;11.91;80.48;95683.78;5065503;28;20452;-78
2023/10/12 04:30:00;;;;;;;7.43;5.37;;;;;;;11.92;80.21;95680.22;5096315;28;20428;-79
2023/10/12 04:32:51;;;;;;;6.70;5.83;;;;;;;11.86;80.86;95681.53;5096112;28;20491;-78
2023/10/12 04:35:27;;;;;;;11.10;5.83;;;;;;;11.79;81.95;95678.50;5096124;28;20489;-79
2023/10/12 04:37:56;;;;;;;8.20;5.80;;;;;;;11.78;82.45;95676.84;5096246;28;20451;-78
2023/10/12 04:40:37;;;;;;;10.97;6.30;;;;;;;11.76;81.55;95675.25;5095818;28;20480;-78
2023/10/12 04:43:06;;;;;;;6.70;5.50;;;;;;;11.72;81.98;95677.28;5064768;28;20497;-78
2023/10/12 04:46:05;;;;;;;11.00;6.30;;;;;;;11.67;82.74;95671.53;5095936;28;20455;-78
2023/10/12 04:48:22;;;;;;;10.40;6.60;;;;;;;11.69;83.00;95669.63;5096021;28;20820;-79
2023/10/12 04:50:59;;;;;;;7.73;6.63;;;;;;;11.70;82.51;95671.31;5095798;28;20448;-78
2023/10/12 04:53:35;;;;;;;14.33;7.93;;;;;;;11.76;82.43;95664.72;5095934;28;20843;-78
2023/10/12 04:56:10;;;;;;;10.37;8.03;;;;;;;11.76;82.59;95660.31;5095865;28;20457;-79
2023/10/12 04:58:55;;;;;;;10.23;8.67;;;;;;;11.78;83.00;95668.94;5095850;28;20461;-77
2023/10/12 05:01:28;;;;;;;9.50;8.10;;;;;;;11.78;82.43;95663.69;5095329;28;20479;-78
2023/10/12 05:04:08;;;;;;;10.07;7.87;;;;;;;11.78;82.68;95657.59;5095912;28;20446;-79
2023/10/12 05:06:36;;;;;;;8.87;7.30;;;;;;;11.76;83.58;95662.09;5095881;28;20448;-79
2023/10/12 05:09:11;;;;;;;9.80;8.17;;;;;;;11.77;83.69;95669.88;5095719;28;20451;-78
2023/10/12 05:11:38;;;;;;;8.17;7.27;;;;;;;11.91;83.36;95663.59;5076396;28;20472;-78
2023/10/12 05:14:14;;;;;;;14.23;9.07;;;;;;;12.36;83.40;95672.28;5095740;28;20465;-79
2023/10/12 05:16:43;;;;;;;9.87;8.60;;;;;;;13.26;79.81;95674.69;5096176;28;20993;-79
2023/10/12 05:19:11;;;;;;;8.87;7.43;;;;;;;14.16;75.34;95680.22;5095694;28;20456;-79
2023/10/12 05:21:38;;;;;;;8.30;6.87;;;;;;;14.94;71.20;95686.59;5095301;28;20966;-79
2023/10/12 05:24:05;;;;;;;13.13;8.50;;;;;;;15.19;68.71;95694.00;5095420;28;20468;-79
2023/10/12 05:26:32;;;;;;;11.30;7.97;;;;;;;15.52;66.86;95703.31;5095444;28;20836;-79
2023/10/12 05:29:17;;;;;;;9.00;6.50;;;;;;;15.46;65.54;95707.34;5059706;28;20438;-79
2023/10/12 05:31:58;;;;;;;13.53;9.37;;;;;;;14.90;65.58;95707.16;5095303;28;20460;-79
2023/10/12 05:34:44;;;;;;;9.13;7.10;;;;;;;14.92;65.35;95709.69;5095091;28;20836;-79
2023/10/12 05:37:24;;;;;;;10.97;8.13;;;;;;;15.15;65.31;95711.09;5095435;28;20448;-79
2023/10/12 05:39:52;;;;;;;9.80;7.77;;;;;;;15.70;63.23;95714.91;5095027;28;20446;-80
2023/10/12 05:42:22;;;;;;;24.50;8.30;;;;;;;16.27;62.60;95706.97;5095432;28;20520;-79
2023/10/12 05:44:49;;;;;;;9.40;7.80;;;;;;;16.83;59.72;95714.00;5094890;28;20456;-79
2023/10/12 05:47:28;;;;;;;10.40;6.47;;;;;;;17.34;58.24;95706.22;5094707;28;20452;-79
2023/10/12 05:49:57;;;;;;;17.10;6.60;;;;;;;17.56;56.87;95717.38;5094623;28;20540;-79
2023/10/12 05:52:24;;;;;;;8.20;5.67;;;;;;;17.80;56.92;95714.97;5095138;28;20498;-80
2023/10/12 05:54:52;;;;;;;14.90;6.90;;;;;;;18.10;56.22;95712.88;5094802;28;20476;-78
2023/10/12 05:57:20;;;;;;;13.67;6.40;;;;;;;18.44;55.68;95711.06;5094711;28;20478;-79
2023/10/12 05:59:47;;;;;;;9.40;6.97;;;;;;;18.79;54.93;95714.56;5059489;28;20530;-79
2023/10/12 06:02:17;;;;;;;9.03;7.03;;;;;;;19.04;54.31;95712.84;5094843;28;20485;-79
2023/10/12 06:04:47;;;;;;;11.77;7.67;;;;;;;19.13;53.59;95702.09;5094813;28;20527;-79
2023/10/12 06:07:14;;;;;;;10.53;7.00;;;;;;;19.15;54.11;95705.41;5094732;28;20480;-79
2023/10/12 06:09:40;;;;;;;15.27;7.53;;;;;;;19.23;53.75;95706.41;5094567;28;20522;-79
2023/10/12 06:12:09;;;;;;;8.57;7.67;;;;;;;19.30;53.61;95707.41;5094515;28;20447;-79
2023/10/12 06:14:37;;;;;;;11.40;7.33;;;;;;;19.44;52.51;95709.47;5075205;28;20432;-79
2023/10/12 06:17:05;;;;;;;9.63;7.07;;;;;;;19.38;52.52;95710.13;5094349;28;20440;-78
2023/10/12 06:19:35;;;;;;;7.70;7.00;;;;;;;19.46;53.17;95708.28;5094403;28;20463;-79
2023/10/12 06:22:19;;;;;;;10.50;7.00;;;;;;;19.42;52.55;95711.44;5094040;28;20483;-79
2023/10/12 06:24:49;;;;;;;7.63;6.93;;;;;;;19.56;53.27;95712.66;5093944;28;20439;-79
2023/10/12 06:27:23;;;;;;;8.13;7.17;;;;;;;19.59;52.65;95712.31;5093654;28;20927;-79
2023/10/12 06:29:52;;;;;;;8.10;7.13;;;;;;;19.60;52.37;95704.16;5093688;28;20523;-78
2023/10/12 06:32:24;;;;;;;7.73;6.93;;;;;;;19.62;51.66;95707.50;5093869;28;20515;-80
2023/10/12 06:35:05;;;;;;;9.13;6.10;;;;;;;19.71;52.73;95706.50;5094088;28;20494;-79
2023/10/12 06:40:47;;;;;;;12.30;6.70;;;;;;;20.11;51.64;95705.66;5093354;28;20935;-79
2023/10/12 06:46:03;;;;;;;12.00;6.70;;;;;;;19.96;54.67;95706.50;5094148;28;20503;-80
2023/10/12 06:48:46;;;;;;;8.67;6.20;;;;;;;20.12;52.97;95706.47;5093855;28;20437;-80
2023/10/12 06:51:13;;;;;;;7.83;6.80;;;;;;;20.35;53.75;95702.13;5093699;28;20527;-80
2023/10/12 06:53:43;;;;;;;8.20;6.93;;;;;;;20.19;50.59;95710.13;5093895;28;20460;-81
2023/10/12 06:56:24;;;;;;;7.97;7.07;;;;;;;20.06;53.66;95709.81;5093456;28;21013;-80
2023/10/12 07:01:38;;;;;;;6.90;6.27;;;;;;;19.75;54.83;95712.34;5093485;28;20885;-79
2023/10/12 07:04:13;;;;;;;8.00;6.70;;;;;;;19.72;55.89;95718.00;5093523;28;20522;-79
2023/10/12 07:06:40;;;;;;;7.47;6.20;;;;;;;19.85;53.88;95712.16;5093981;28;20450;-80
2023/10/12 07:09:09;;;;;;;7.27;5.83;;;;;;;19.74;53.93;95710.69;5092795;28;20444;-79
2023/10/12 07:11:39;;;;;;;11.47;6.20;;;;;;;19.85;54.42;95712.16;5057310;28;20907;-79
2023/10/12 07:14:09;;;;;;;12.47;6.37;;;;;;;19.85;52.27;95712.16;5091506;28;20457;-78
2023/10/12 07:16:52;;;;;;;8.20;5.77;;;;;;;19.96;53.10;95703.84;5093610;28;20445;-79
2023/10/12 07:19:24;;;;;;;8.33;6.07;;;;;;;20.05;53.86;95709.00;5093346;28;20448;-79
2023/10/12 07:21:53;;;;;;;8.97;5.50;;;;;;;20.09;53.96;95706.81;5093161;28;20490;-79
2023/10/12 07:24:23;;;;;;;13.23;6.10;;;;;;;19.85;51.67;95707.66;5093676;28;20792;-79
2023/10/12 07:26:49;;;;;;;9.83;6.27;;;;;;;19.82;53.83;95704.50;5074143;28;20442;-79
2023/10/12 07:29:19;;;;;;;9.50;5.90;;;;;;;20.03;53.43;95712.81;5093016;28;20441;-80
2023/10/12 07:31:48;;;;;;;10.23;6.20;;;;;;;19.85;52.19;95701.50;5093287;28;20457;-77
2023/10/12 07:34:18;;;;;;;7.47;6.30;;;;;;;19.80;52.04;95704.69;5093381;28;20869;-78
2023/10/12 07:36:57;;;;;;;8.77;5.63;;;;;;;19.68;53.49;95706.84;5093987;28;20497;-78
2023/10/12 07:39:38;;;;;;;13.87;7.23;;;;;;;19.50;52.70;95706.97;5093075;28;20440;-78
2023/10/12 07:42:12;;;;;;;10.90;7.00;;;;;;;19.25;52.76;95709.75;5092671;28;20490;-77
2023/10/12 07:44:42;;;;;;;14.70;7.50;;;;;;;19.14;53.94;95706.41;5092684;28;20539;-78
2023/10/12 07:47:22;;;;;;;9.57;6.30;;;;;;;18.99;55.88;95709.84;5093115;28;20444;-78
2023/10/12 07:49:49;;;;;;;7.93;6.00;;;;;;;18.91;54.86;95708.00;5092525;28;20802;-78
2023/10/12 07:52:31;;;;;;;8.27;5.77;;;;;;;18.85;55.10;95700.66;5094526;28;20444;-78
2023/10/12 07:55:07;;;;;;;6.63;5.97;;;;;;;18.90;55.89;95711.66;5097180;28;20446;-78
2023/10/12 07:57:36;;;;;;;9.10;5.80;;;;;;;18.66;54.88;95700.91;5016395;28;20457;-78
2023/10/12 08:05:56;;;;;;;8.93;6.33;;;;;;;18.43;55.61;95692.63;5096735;28;20495;-78
2023/10/12 08:08:37;;;;;;;16.30;7.30;;;;;;;18.50;55.63;95685.69;5096785;28;20450;-78
2023/10/12 08:11:28;;;;;;;7.30;6.13;;;;;;;18.66;57.04;95695.59;5096573;28;20534;-78
2023/10/12 08:13:56;;;;;;;12.83;6.40;;;;;;;18.71;55.63;95687.97;5096504;28;20447;-78
2023/10/12 08:16:27;;;;;;;7.53;6.10;;;;;;;18.82;57.13;95685.03;5096453;28;20444;-78
2023/10/12 08:21:41;;;;;;;14.20;6.73;;;;;;;18.96;55.99;95676.41;5096355;28;20478;-78
2023/10/12 08:24:22;;;;;;;9.90;6.90;;;;;;;19.19;56.08;95674.81;5061510;28;20509;-78
2023/10/12 08:26:57;;;;;;;7.50;5.97;;;;;;;19.52;55.75;95668.69;5096485;28;20442;-78
2023/10/12 08:32:12;;;;;;;7.53;6.60;;;;;;;19.99;54.76;95656.38;5056905;28;20429;-78
2023/10/12 08:34:42;;;;;;;14.23;7.13;;;;;;;20.13;55.41;95657.50;5087469;28;20531;-78
2023/10/12 08:37:19;;;;;;;13.93;6.63;;;;;;;19.95;53.31;95652.41;5076614;28;20436;-78
2023/10/12 08:39:49;;;;;;;9.97;7.37;;;;;;;19.73;53.41;95650.41;5094851;28;20949;-77
2023/10/12 08:42:37;;;;;;;9.63;7.40;;;;;;;19.81;53.65;95653.06;5074865;28;21112;-78
2023/10/12 08:45:08;;;;;;;12.30;6.90;;;;;;;19.91;52.53;95644.88;5075814;28;20446;-78
2023/10/12 08:47:44;;;;;;;14.83;5.87;;;;;;;19.98;53.68;95641.41;5075814;28;20522;-78
2023/10/12 08:50:47;;;;;;;10.10;7.27;;;;;;;20.11;56.54;95643.53;5075319;28;20997;-78
2023/10/12 08:53:18;;;;;;;15.90;6.90;;;;;;;20.35;53.64;95645.31;5075452;28;20539;-78
2023/10/12 08:55:47;;;;;;;7.57;6.83;;;;;;;20.41;51.05;95642.81;5075676;28;20449;-78
2023/10/12 08:58:33;;;;;;;15.90;7.17;;;;;;;20.55;51.34;95648.44;5075280;28;20441;-78
2023/10/12 09:01:19;;;;;;;16.17;8.10;;;;;;;20.62;52.93;95641.41;5076589;28;20481;-77
2023/10/12 09:03:49;;;;;;;13.17;8.00;;;;;;;20.62;50.88;95625.41;5081408;28;20449;-76
2023/10/12 09:06:29;;;;;;;19.77;9.53;;;;;;;20.49;51.63;95631.28;5095695;28;20439;-77
2023/10/12 09:08:57;;;;;;;25.07;8.27;;;;;;;20.28;52.36;95621.16;5095137;28;20537;-77
2023/10/12 09:11:33;;;;;;;16.07;8.90;;;;;;;20.29;54.68;95622.84;5095417;28;20935;-77
2023/10/12 09:14:11;;;;;;;12.50;6.80;;;;;;;20.25;54.51;95612.69;5080026;28;21008;-77
2023/10/12 09:16:38;;;;;;;13.10;6.70;;;;;;;20.29;52.18;95612.16;5094464;28;20503;-77
2023/10/12 09:19:23;;;;;;;9.83;6.27;;;;;;;20.23;52.56;95609.34;5079777;28;20847;-77
2023/10/12 09:21:57;;;;;;;15.70;8.00;;;;;;;20.05;51.91;95606.91;5085449;28;20487;-78
2023/10/12 09:24:28;;;;;;;14.63;7.97;;;;;;;19.73;53.07;95598.00;5078492;28;20450;-77
2023/10/12 09:26:58;;;;;;;17.13;6.93;;;;;;;19.88;53.23;95599.94;5056549;28;20500;-78
2023/10/12 09:29:28;;;;;;;18.37;7.87;;;;;;;19.93;52.76;95586.94;5094841;28;20954;-79
2023/10/12 09:35:02;;;;;;;12.60;6.80;;;;;;;20.04;53.93;95578.59;5094540;28;20525;-79
2023/10/12 09:37:33;;;;;;;12.90;6.70;;;;;;;20.17;54.07;95578.06;5094736;28;20473;-78
2023/10/12 09:40:00;;;;;;;14.23;6.30;;;;;;;20.29;52.70;95576.69;5094344;28;20448;-79
2023/10/12 09:42:31;;;;;;;9.90;6.37;;;;;;;20.44;52.10;95572.31;5093870;28;20491;-78
2023/10/12 09:45:05;;;;;;;20.23;7.97;;;;;;;20.19;51.95;95568.88;5009283;28;20456;-78
2023/10/12 09:47:50;;;;;;;8.43;5.83;;;;;;;20.08;52.87;95563.94;5094437;28;20452;-77
2023/10/12 09:50:27;;;;;;;11.83;6.73;;;;;;;20.06;53.03;95558.78;5094281;28;20472;-78
2023/10/12 09:52:58;;;;;;;13.33;5.53;;;;;;;20.06;52.96;95556.13;5094055;28;20535;-78
2023/10/12 09:55:33;;;;;;;9.63;6.17;;;;;;;20.17;52.72;95548.72;5093818;28;20448;-78
2023/10/12 09:58:12;;;;;;;12.30;6.30;;;;;;;20.28;52.70;95545.72;5094035;28;20449;-79
2023/10/12 10:01:01;;;;;;;9.70;6.90;;;;;;;20.27;53.02;95536.88;5093865;28;20449;-77
2023/10/12 10:03:35;;;;;;;15.67;6.13;;;;;;;20.14;53.21;95525.09;5093648;28;20446;-78
2023/10/12 10:06:19;;;;;;;17.17;6.43;;;;;;;20.11;52.36;95531.59;5094247;28;20436;-78
2023/10/12 10:08:53;;;;;;;13.67;6.00;;;;;;;20.24;54.40;95526.56;5093904;28;20444;-78
2023/10/12 10:11:26;;;;;;;9.97;6.27;;;;;;;20.33;53.05;95520.19;5093668;28;20440;-78
2023/10/12 10:13:53;;;;;;;13.70;6.37;;;;;;;20.31;52.01;95524.88;5093698;28;20848;-78
2023/10/12 10:16:21;;;;;;;10.73;6.53;;;;;;;20.40;53.68;95525.69;5057140;28;20445;-77
2023/10/12 10:19:10;;;;;;;11.10;6.53;;;;;;;20.53;54.27;95522.44;5093456;28;20442;-78
2023/10/12 10:21:38;;;;;;;13.53;5.90;;;;;;;20.59;52.95;95511.91;5083255;28;20576;-78
2023/10/12 10:24:12;;;;;;;9.90;5.70;;;;;;;20.67;53.19;95505.69;5093596;28;20447;-78
2023/10/12 10:26:40;;;;;;;13.07;6.10;;;;;;;20.66;52.53;95502.19;5093415;28;20445;-77
2023/10/12 10:29:17;;;;;;;11.67;6.57;;;;;;;20.63;52.29;95494.53;5093088;28;20442;-77
2023/10/12 10:31:51;;;;;;;10.63;6.33;;;;;;;20.69;57.88;95488.50;5093447;28;20449;-79
2023/10/12 10:34:23;;;;;;;6.33;5.23;;;;;;;20.69;55.39;95490.34;5093230;28;20889;-82
2023/10/12 10:36:52;;;;;;;9.27;5.80;;;;;;;20.80;54.67;95489.91;5053499;28;20942;-79
2023/10/12 10:39:29;;;;;;;11.73;6.23;;;;;;;20.96;54.21;95486.28;5053333;28;20497;-80
2023/10/12 10:42:00;;;;;;;7.60;5.20;;;;;;;21.05;54.71;95482.53;5053000;28;20549;-82
2023/10/12 10:44:29;;;;;;;6.13;5.13;;;;;;;21.15;55.25;95479.63;5034959;28;20494;-80
2023/10/12 10:47:00;;;;;;;6.93;5.70;;;;;;;21.28;53.12;95482.53;5034310;28;20498;-79
2023/10/12 10:49:30;;;;;;;7.10;6.07;;;;;;;21.35;51.28;95478.13;5034796;28;21011;-78
2023/10/12 10:52:13;;;;;;;13.73;6.70;;;;;;;21.31;51.42;95469.66;5052658;28;20507;-78
2023/10/12 10:54:56;;;;;;;7.73;5.83;;;;;;;21.25;50.67;95467.72;5052633;28;20978;-78
2023/10/12 10:57:31;;;;;;;11.67;5.80;;;;;;;21.28;51.07;95469.19;5052582;28;20456;-78
2023/10/12 10:59:58;;;;;;;7.60;5.40;;;;;;;21.23;49.96;95455.53;5052487;28;20529;-79
2023/10/12 11:02:27;;;;;;;16.73;5.60;;;;;;;21.11;50.23;95457.81;5052308;28;20484;-78
2023/10/12 11:04:58;;;;;;;9.13;7.00;;;;;;;20.88;50.64;95457.84;5052815;28;20467;-78
2023/10/12 11:07:25;;;;;;;12.77;5.60;;;;;;;20.88;52.30;95451.69;5052681;28;20459;-78
2023/10/12 11:10:23;;;;;;;13.60;6.07;;;;;;;20.90;52.27;95439.81;5052549;28;20870;-78
2023/10/12 11:13:00;;;;;;;11.37;5.00;;;;;;;21.01;52.15;95433.22;5052461;28;20451;-78
2023/10/12 11:15:28;;;;;;;14.27;5.93;;;;;;;21.08;51.75;95438.66;5052501;28;20448;-79
2023/10/12 11:18:07;;;;;;;15.23;5.23;;;;;;;21.17;51.60;95430.41;5052435;28;20460;-79
2023/10/12 11:20:43;;;;;;;6.63;5.87;;;;;;;21.23;50.97;95432.38;5052131;28;20452;-79
2023/10/12 11:23:11;;;;;;;18.87;6.73;;;;;;;21.07;49.84;95415.63;5052238;28;20554;-78
2023/10/12 11:25:41;;;;;;;9.07;5.50;;;;;;;21.10;50.10;95415.28;5033817;28;20908;-79
2023/10/12 11:28:20;;;;;;;10.13;6.00;;;;;;;21.15;50.41;95413.75;5051902;28;20451;-79
2023/10/12 11:30:48;;;;;;;13.73;7.50;;;;;;;21.16;50.36;95407.41;5052170;28;20455;-79
2023/10/12 11:33:20;;;;;;;8.97;6.10;;;;;;;21.13;50.62;95398.94;5052552;28;20495;-78
2023/10/12 11:35:47;;;;;;;8.90;5.30;;;;;;;21.22;50.92;95403.16;5077001;28;20855;-78
2023/10/12 11:38:17;;;;;;;10.47;5.20;;;;;;;21.41;52.27;95391.97;5056685;28;20441;-79
2023/10/12 11:40:44;;;;;;;5.90;5.40;;;;;;;21.56;52.20;95391.97;5092353;28;20477;-79
2023/10/12 11:43:11;;;;;;;7.47;5.40;;;;;;;21.68;50.75;95386.97;5092532;28;20510;-79
2023/10/12 11:45:55;;;;;;;7.13;5.50;;;;;;;21.79;50.81;95384.66;5091833;28;20439;-78
2023/10/12 11:48:24;;;;;;;13.97;6.03;;;;;;;21.88;49.88;95380.84;5056958;28;20458;-79
2023/10/12 11:50:50;;;;;;;10.27;5.43;;;;;;;21.84;48.99;95384.91;5091921;28;20443;-79
2023/10/12 11:53:17;;;;;;;10.53;6.67;;;;;;;21.88;49.09;95375.50;5092358;28;20441;-79
2023/10/12 11:55:45;;;;;;;9.90;5.00;;;;;;;21.94;50.38;95368.56;5092126;28;20938;-79
2023/10/12 11:58:19;;;;;;;9.83;5.50;;;;;;;21.93;49.27;95372.28;5092009;28;20443;-78
2023/10/12 12:00:48;;;;;;;9.73;5.60;;;;;;;21.93;48.85;95366.91;5092009;28;20447;-79
2023/10/12 12:03:17;;;;;;;12.27;5.53;;;;;;;21.94;48.21;95365.91;5091952;28;20548;-79
2023/10/12 12:05:50;;;;;;;7.67;5.00;;;;;;;21.92;48.18;95363.41;5092417;28;20534;-79
2023/10/12 12:08:18;;;;;;;8.40;5.37;;;;;;;21.78;48.75;95364.31;5058339;28;20446;-78
2023/10/12 12:10:46;;;;;;;10.10;4.70;;;;;;;21.70;48.16;95356.41;5092406;28;20923;-79
2023/10/12 12:13:15;;;;;;;6.87;4.73;;;;;;;21.78;49.32;95347.44;5092130;28;20456;-79
2023/10/12 12:15:43;;;;;;;17.23;5.10;;;;;;;21.91;50.33;95352.94;5092606;28;20446;-79
2023/10/12 12:18:14;;;;;;;10.30;5.60;;;;;;;21.94;48.53;95347.19;5091918;28;20453;-78
2023/10/12 12:20:44;;;;;;;6.07;5.10;;;;;;;21.95;49.54;95333.66;5092007;28;20442;-79
2023/10/12 12:23:12;;;;;;;8.37;4.90;;;;;;;21.93;48.67;95333.00;5090689;28;20483;-79
2023/10/12 12:25:40;;;;;;;9.80;5.03;;;;;;;21.97;48.71;95330.78;5092337;28;20464;-79
2023/10/12 12:28:08;;;;;;;9.73;5.40;;;;;;;22.01;48.95;95332.09;5091932;28;20446;-79